sensor_id;sensor_type;location;lat;lon;timestamp;pressure;altitude;pressure_sealevel;temperature;humidity
39487;BME280;25173;50.430;18.926;2023-11-19T00:01:20;98735.22;;;5.11;63.29
39487;BME280;25173;50.430;18.926;2023-11-19T00:04:21;98729.19;;;5.08;63.08
39487;BME280;25173;50.430;18.926;2023-11-19T00:07:21;98727.97;;;5.04;62.93
39487;BME280;25173;50.430;18.926;2023-11-19T00:10:22;98735.50;;;5.02;63.30
39487;BME280;25173;50.430;18.926;2023-11-19T00:13:23;98729.34;;;4.95;63.59
39487;BME280;25173;50.430;18.926;2023-11-19T00:16:23;98728.13;;;4.91;63.63
39487;BME280;25173;50.430;18.926;2023-11-19T00:19:24;98732.69;;;4.91;63.61
39487;BME280;25173;50.430;18.926;2023-11-19T00:22:25;98721.31;;;4.89;63.71
39487;BME280;25173;50.430;18.926;2023-11-19T00:25:26;98708.06;;;4.87;63.41
39487;BME280;25173;50.430;18.926;2023-11-19T00:28:26;98707.59;;;4.90;63.69
39487;BME280;25173;50.430;18.926;2023-11-19T00:31:30;98713.97;;;4.96;63.73
39487;BME280;25173;50.430;18.926;2023-11-19T00:34:32;98723.13;;;4.95;63.93
39487;BME280;25173;50.430;18.926;2023-11-19T00:37:33;98726.66;;;4.95;64.12
39487;BME280;25173;50.430;18.926;2023-11-19T00:40:34;98725.13;;;4.99;64.40
39487;BME280;25173;50.430;18.926;2023-11-19T00:43:34;98714.34;;;4.99;64.28
39487;BME280;25173;50.430;18.926;2023-11-19T00:46:35;98710.22;;;4.97;64.37
39487;BME280;25173;50.430;18.926;2023-11-19T00:49:35;98716.44;;;4.97;64.49
39487;BME280;25173;50.430;18.926;2023-11-19T00:52:36;98708.50;;;5.02;64.67
39487;BME280;25173;50.430;18.926;2023-11-19T00:55:37;98699.84;;;5.12;64.61
39487;BME280;25173;50.430;18.926;2023-11-19T00:58:38;98701.44;;;5.20;64.48
39487;BME280;25173;50.430;18.926;2023-11-19T01:01:38;98706.63;;;5.21;64.39
39487;BME280;25173;50.430;18.926;2023-11-19T01:04:39;98702.03;;;5.22;64.48
39487;BME280;25173;50.430;18.926;2023-11-19T01:07:40;98700.22;;;5.34;64.40
39487;BME280;25173;50.430;18.926;2023-11-19T01:10:40;98700.50;;;5.44;64.23
39487;BME280;25173;50.430;18.926;2023-11-19T01:13:41;98689.38;;;5.52;64.23
39487;BME280;25173;50.430;18.926;2023-11-19T01:16:42;98679.69;;;5.63;64.25
39487;BME280;25173;50.430;18.926;2023-11-19T01:19:43;98683.47;;;5.73;64.04
39487;BME280;25173;50.430;18.926;2023-11-19T01:22:43;98676.47;;;5.84;64.01
39487;BME280;25173;50.430;18.926;2023-11-19T01:25:45;98682.97;;;5.95;63.74
39487;BME280;25173;50.430;18.926;2023-11-19T01:28:45;98662.47;;;5.87;63.63
39487;BME280;25173;50.430;18.926;2023-11-19T01:31:48;98659.88;;;5.80;64.04
39487;BME280;25173;50.430;18.926;2023-11-19T01:34:49;98649.06;;;5.80;63.96
39487;BME280;25173;50.430;18.926;2023-11-19T01:37:49;98647.94;;;5.88;64.25
39487;BME280;25173;50.430;18.926;2023-11-19T01:40:56;98647.38;;;5.98;64.02
39487;BME280;25173;50.430;18.926;2023-11-19T01:43:57;98647.16;;;6.11;63.98
39487;BME280;25173;50.430;18.926;2023-11-19T01:46:59;98632.47;;;6.18;63.64
39487;BME280;25173;50.430;18.926;2023-11-19T01:50:01;98625.78;;;6.21;63.57
39487;BME280;25173;50.430;18.926;2023-11-19T01:53:07;98621.53;;;6.25;63.52
39487;BME280;25173;50.430;18.926;2023-11-19T01:56:09;98620.25;;;6.28;63.24
39487;BME280;25173;50.430;18.926;2023-11-19T01:59:11;98616.50;;;6.29;63.26
39487;BME280;25173;50.430;18.926;2023-11-19T02:02:14;98610.81;;;6.30;63.01
39487;BME280;25173;50.430;18.926;2023-11-19T02:05:15;98589.44;;;6.29;62.81
39487;BME280;25173;50.430;18.926;2023-11-19T02:08:16;98570.97;;;6.26;62.84
39487;BME280;25173;50.430;18.926;2023-11-19T02:11:18;98555.47;;;6.21;62.63
39487;BME280;25173;50.430;18.926;2023-11-19T02:14:18;98544.06;;;6.19;62.77
39487;BME280;25173;50.430;18.926;2023-11-19T02:17:27;98540.97;;;6.15;62.42
39487;BME280;25173;50.430;18.926;2023-11-19T02:20:28;98530.78;;;6.06;62.56
39487;BME280;25173;50.430;18.926;2023-11-19T02:23:30;98521.38;;;5.97;62.51
39487;BME280;25173;50.430;18.926;2023-11-19T02:27:02;98516.44;;;5.94;62.35
39487;BME280;25173;50.430;18.926;2023-11-19T02:30:08;98511.75;;;5.89;62.42
39487;BME280;25173;50.430;18.926;2023-11-19T02:33:09;98518.88;;;5.83;62.22
39487;BME280;25173;50.430;18.926;2023-11-19T02:36:10;98510.06;;;5.76;62.38
39487;BME280;25173;50.430;18.926;2023-11-19T02:39:10;98500.44;;;5.69;62.59
39487;BME280;25173;50.430;18.926;2023-11-19T02:42:13;98493.28;;;5.63;62.34
39487;BME280;25173;50.430;18.926;2023-11-19T02:45:14;98478.22;;;5.55;62.43
39487;BME280;25173;50.430;18.926;2023-11-19T02:48:15;98480.34;;;5.53;62.63
39487;BME280;25173;50.430;18.926;2023-11-19T02:51:16;98482.44;;;5.51;62.48
39487;BME280;25173;50.430;18.926;2023-11-19T02:54:19;98472.34;;;5.46;62.42
39487;BME280;25173;50.430;18.926;2023-11-19T02:57:21;98463.41;;;5.46;62.53
39487;BME280;25173;50.430;18.926;2023-11-19T03:00:23;98458.69;;;5.41;62.57
39487;BME280;25173;50.430;18.926;2023-11-19T03:03:25;98465.88;;;5.36;62.50
39487;BME280;25173;50.430;18.926;2023-11-19T03:06:38;98473.03;;;5.30;62.70
39487;BME280;25173;50.430;18.926;2023-11-19T03:09:39;98480.31;;;5.30;62.63
39487;BME280;25173;50.430;18.926;2023-11-19T03:12:41;98479.34;;;5.24;62.66
39487;BME280;25173;50.430;18.926;2023-11-19T03:15:42;98478.63;;;5.17;63.00
39487;BME280;25173;50.430;18.926;2023-11-19T03:18:43;98469.34;;;5.13;63.25
39487;BME280;25173;50.430;18.926;2023-11-19T03:21:44;98474.41;;;5.10;63.29
39487;BME280;25173;50.430;18.926;2023-11-19T03:24:45;98461.34;;;5.06;63.33
39487;BME280;25173;50.430;18.926;2023-11-19T03:27:45;98459.69;;;5.05;63.50
39487;BME280;25173;50.430;18.926;2023-11-19T03:30:46;98445.53;;;5.10;63.40
39487;BME280;25173;50.430;18.926;2023-11-19T03:33:47;98441.66;;;5.18;63.17
39487;BME280;25173;50.430;18.926;2023-11-19T03:36:47;98440.72;;;5.24;62.99
39487;BME280;25173;50.430;18.926;2023-11-19T03:39:49;98427.34;;;5.29;62.88
39487;BME280;25173;50.430;18.926;2023-11-19T03:42:50;98428.16;;;5.29;62.88
39487;BME280;25173;50.430;18.926;2023-11-19T03:45:50;98398.25;;;5.31;63.02
39487;BME280;25173;50.430;18.926;2023-11-19T03:48:51;98397.41;;;5.30;62.98
39487;BME280;25173;50.430;18.926;2023-11-19T03:51:52;98406.34;;;5.31;63.05
39487;BME280;25173;50.430;18.926;2023-11-19T03:54:52;98394.00;;;5.35;62.94
39487;BME280;25173;50.430;18.926;2023-11-19T03:57:55;98382.75;;;5.38;62.93
39487;BME280;25173;50.430;18.926;2023-11-19T04:00:56;98381.19;;;5.42;62.84
39487;BME280;25173;50.430;18.926;2023-11-19T04:03:56;98377.44;;;5.43;62.74
39487;BME280;25173;50.430;18.926;2023-11-19T04:06:57;98372.03;;;5.43;62.84
39487;BME280;25173;50.430;18.926;2023-11-19T04:09:58;98368.28;;;5.44;62.85
39487;BME280;25173;50.430;18.926;2023-11-19T04:12:59;98378.38;;;5.48;62.85
39487;BME280;25173;50.430;18.926;2023-11-19T04:16:00;98379.69;;;5.46;62.73
39487;BME280;25173;50.430;18.926;2023-11-19T04:19:00;98372.63;;;5.45;62.90
39487;BME280;25173;50.430;18.926;2023-11-19T04:22:01;98361.25;;;5.43;63.13
39487;BME280;25173;50.430;18.926;2023-11-19T04:25:02;98336.81;;;5.50;63.08
39487;BME280;25173;50.430;18.926;2023-11-19T04:28:03;98346.91;;;5.54;62.96
39487;BME280;25173;50.430;18.926;2023-11-19T04:31:04;98332.34;;;5.55;62.71
39487;BME280;25173;50.430;18.926;2023-11-19T04:34:06;98330.22;;;5.57;62.84
39487;BME280;25173;50.430;18.926;2023-11-19T04:37:07;98330.81;;;5.59;62.72
39487;BME280;25173;50.430;18.926;2023-11-19T04:40:08;98324.44;;;5.65;62.87
39487;BME280;25173;50.430;18.926;2023-11-19T04:43:09;98319.88;;;5.66;62.74
39487;BME280;25173;50.430;18.926;2023-11-19T04:46:10;98321.03;;;5.70;62.82
39487;BME280;25173;50.430;18.926;2023-11-19T04:49:11;98336.31;;;5.76;62.65
39487;BME280;25173;50.430;18.926;2023-11-19T04:52:11;98329.56;;;5.78;62.53
39487;BME280;25173;50.430;18.926;2023-11-19T04:55:12;98325.59;;;5.81;62.67
39487;BME280;25173;50.430;18.926;2023-11-19T04:58:14;98322.06;;;5.80;62.51
39487;BME280;25173;50.430;18.926;2023-11-19T05:01:15;98316.31;;;5.77;62.48
39487;BME280;25173;50.430;18.926;2023-11-19T05:04:17;98316.56;;;5.75;62.81
39487;BME280;25173;50.430;18.926;2023-11-19T05:07:19;98312.31;;;5.79;62.69
39487;BME280;25173;50.430;18.926;2023-11-19T05:10:19;98295.13;;;5.85;62.65
39487;BME280;25173;50.430;18.926;2023-11-19T05:13:20;98280.13;;;5.90;62.51
39487;BME280;25173;50.430;18.926;2023-11-19T05:16:20;98275.53;;;5.90;62.39
39487;BME280;25173;50.430;18.926;2023-11-19T05:19:21;98270.94;;;5.91;62.44
39487;BME280;25173;50.430;18.926;2023-11-19T05:22:22;98271.53;;;5.93;62.33
39487;BME280;25173;50.430;18.926;2023-11-19T05:25:22;98254.34;;;5.87;62.17
39487;BME280;25173;50.430;18.926;2023-11-19T05:28:23;98245.00;;;5.78;62.28
39487;BME280;25173;50.430;18.926;2023-11-19T05:31:24;98242.44;;;5.71;62.38
39487;BME280;25173;50.430;18.926;2023-11-19T05:34:25;98236.84;;;5.61;62.23
39487;BME280;25173;50.430;18.926;2023-11-19T05:37:26;98234.44;;;5.48;62.51
39487;BME280;25173;50.430;18.926;2023-11-19T05:40:27;98245.09;;;5.43;62.65
39487;BME280;25173;50.430;18.926;2023-11-19T05:43:28;98258.03;;;5.41;62.75
39487;BME280;25173;50.430;18.926;2023-11-19T05:46:29;98249.69;;;5.42;62.80
39487;BME280;25173;50.430;18.926;2023-11-19T05:49:29;98244.63;;;5.46;62.76
39487;BME280;25173;50.430;18.926;2023-11-19T05:52:30;98245.47;;;5.46;62.75
39487;BME280;25173;50.430;18.926;2023-11-19T05:55:33;98243.00;;;5.45;62.72
39487;BME280;25173;50.430;18.926;2023-11-19T05:58:35;98250.03;;;5.46;62.74
39487;BME280;25173;50.430;18.926;2023-11-19T06:01:37;98252.38;;;5.42;62.70
39487;BME280;25173;50.430;18.926;2023-11-19T06:04:38;98259.53;;;5.48;62.82
39487;BME280;25173;50.430;18.926;2023-11-19T06:07:39;98261.53;;;5.53;63.04
39487;BME280;25173;50.430;18.926;2023-11-19T06:10:42;98250.13;;;5.63;63.04
39487;BME280;25173;50.430;18.926;2023-11-19T06:13:44;98250.78;;;5.70;62.67
39487;BME280;25173;50.430;18.926;2023-11-19T06:16:45;98241.50;;;5.77;62.77
39487;BME280;25173;50.430;18.926;2023-11-19T06:19:45;98231.09;;;5.86;62.88
39487;BME280;25173;50.430;18.926;2023-11-19T06:22:46;98233.78;;;5.86;62.75
39487;BME280;25173;50.430;18.926;2023-11-19T06:25:47;98228.75;;;5.90;62.83
39487;BME280;25173;50.430;18.926;2023-11-19T06:28:47;98230.88;;;5.88;62.74
39487;BME280;25173;50.430;18.926;2023-11-19T06:31:48;98228.75;;;5.90;63.05
39487;BME280;25173;50.430;18.926;2023-11-19T06:34:49;98208.78;;;5.91;63.04
39487;BME280;25173;50.430;18.926;2023-11-19T06:37:50;98208.41;;;5.87;63.04
39487;BME280;25173;50.430;18.926;2023-11-19T06:40:50;98200.53;;;5.85;63.25
39487;BME280;25173;50.430;18.926;2023-11-19T06:43:51;98198.91;;;5.84;63.33
39487;BME280;25173;50.430;18.926;2023-11-19T06:46:52;98189.72;;;5.85;63.47
39487;BME280;25173;50.430;18.926;2023-11-19T06:49:54;98173.28;;;5.87;63.37
39487;BME280;25173;50.430;18.926;2023-11-19T06:52:55;98160.41;;;5.77;63.41
39487;BME280;25173;50.430;18.926;2023-11-19T06:55:55;98180.03;;;5.73;63.65
39487;BME280;25173;50.430;18.926;2023-11-19T06:58:57;98177.94;;;5.75;63.82
39487;BME280;25173;50.430;18.926;2023-11-19T07:01:57;98178.16;;;5.73;63.90
39487;BME280;25173;50.430;18.926;2023-11-19T07:04:59;98178.84;;;5.80;64.07
39487;BME280;25173;50.430;18.926;2023-11-19T07:08:00;98171.78;;;5.91;64.05
39487;BME280;25173;50.430;18.926;2023-11-19T07:11:01;98163.44;;;5.93;63.82
39487;BME280;25173;50.430;18.926;2023-11-19T07:14:02;98157.44;;;5.91;64.06
39487;BME280;25173;50.430;18.926;2023-11-19T07:17:03;98158.50;;;5.90;64.05
39487;BME280;25173;50.430;18.926;2023-11-19T07:20:04;98148.00;;;5.93;64.07
39487;BME280;25173;50.430;18.926;2023-11-19T07:23:06;98154.22;;;5.94;64.23
39487;BME280;25173;50.430;18.926;2023-11-19T07:26:06;98159.34;;;6.07;64.43
39487;BME280;25173;50.430;18.926;2023-11-19T07:29:10;98163.59;;;6.19;64.13
39487;BME280;25173;50.430;18.926;2023-11-19T07:32:11;98167.53;;;6.29;64.11
39487;BME280;25173;50.430;18.926;2023-11-19T07:35:14;98145.56;;;6.42;64.02
39487;BME280;25173;50.430;18.926;2023-11-19T07:38:16;98123.56;;;6.55;63.85
39487;BME280;25173;50.430;18.926;2023-11-19T07:41:16;98125.34;;;6.66;63.66
39487;BME280;25173;50.430;18.926;2023-11-19T07:44:17;98127.88;;;6.73;63.55
39487;BME280;25173;50.430;18.926;2023-11-19T07:47:17;98115.53;;;6.82;63.41
39487;BME280;25173;50.430;18.926;2023-11-19T07:50:18;98111.31;;;6.91;63.39
39487;BME280;25173;50.430;18.926;2023-11-19T07:53:20;98098.41;;;6.98;63.17
39487;BME280;25173;50.430;18.926;2023-11-19T07:56:21;98097.13;;;7.06;63.18
39487;BME280;25173;50.430;18.926;2023-11-19T07:59:22;98096.94;;;7.12;63.10
39487;BME280;25173;50.430;18.926;2023-11-19T08:02:22;98082.13;;;7.20;63.10
39487;BME280;25173;50.430;18.926;2023-11-19T08:05:23;98083.53;;;7.22;62.94
39487;BME280;25173;50.430;18.926;2023-11-19T08:08:25;98077.34;;;7.27;62.88
39487;BME280;25173;50.430;18.926;2023-11-19T08:11:25;98077.16;;;7.33;62.87
39487;BME280;25173;50.430;18.926;2023-11-19T08:14:26;98064.75;;;7.43;62.73
39487;BME280;25173;50.430;18.926;2023-11-19T08:17:27;98071.88;;;7.49;62.69
39487;BME280;25173;50.430;18.926;2023-11-19T08:20:27;98075.22;;;7.56;62.33
39487;BME280;25173;50.430;18.926;2023-11-19T08:23:28;98068.75;;;7.62;62.32
39487;BME280;25173;50.430;18.926;2023-11-19T08:26:29;98068.78;;;7.67;62.23
39487;BME280;25173;50.430;18.926;2023-11-19T08:29:29;98069.41;;;7.74;62.08
39487;BME280;25173;50.430;18.926;2023-11-19T08:32:30;98068.28;;;7.70;61.86
39487;BME280;25173;50.430;18.926;2023-11-19T08:35:30;98065.50;;;7.65;61.88
39487;BME280;25173;50.430;18.926;2023-11-19T08:38:31;98051.97;;;7.65;61.97
39487;BME280;25173;50.430;18.926;2023-11-19T08:41:32;98050.91;;;7.66;61.47
39487;BME280;25173;50.430;18.926;2023-11-19T08:44:32;98054.69;;;7.65;61.58
39487;BME280;25173;50.430;18.926;2023-11-19T08:47:33;98062.31;;;7.68;61.36
39487;BME280;25173;50.430;18.926;2023-11-19T08:50:33;98050.91;;;7.66;61.39
39487;BME280;25173;50.430;18.926;2023-11-19T08:53:35;98045.22;;;7.67;61.49
39487;BME280;25173;50.430;18.926;2023-11-19T08:56:36;98017.91;;;7.74;61.20
39487;BME280;25173;50.430;18.926;2023-11-19T08:59:36;98004.97;;;7.86;61.42
39487;BME280;25173;50.430;18.926;2023-11-19T09:02:39;98000.72;;;8.00;61.04
39487;BME280;25173;50.430;18.926;2023-11-19T09:05:40;98005.41;;;8.10;60.67
39487;BME280;25173;50.430;18.926;2023-11-19T09:08:42;98008.94;;;8.15;60.39
39487;BME280;25173;50.430;18.926;2023-11-19T09:11:43;98011.97;;;8.19;60.40
39487;BME280;25173;50.430;18.926;2023-11-19T09:14:43;98011.47;;;8.27;60.27
39487;BME280;25173;50.430;18.926;2023-11-19T09:17:46;98005.84;;;8.34;60.26
39487;BME280;25173;50.430;18.926;2023-11-19T09:20:46;97995.50;;;8.31;59.76
39487;BME280;25173;50.430;18.926;2023-11-19T09:23:47;97986.25;;;8.27;59.62
39487;BME280;25173;50.430;18.926;2023-11-19T09:26:49;97972.16;;;8.30;59.69
39487;BME280;25173;50.430;18.926;2023-11-19T09:29:50;97973.53;;;8.32;59.47
39487;BME280;25173;50.430;18.926;2023-11-19T09:32:57;97972.78;;;8.37;59.65
39487;BME280;25173;50.430;18.926;2023-11-19T09:35:58;97968.44;;;8.46;59.62
39487;BME280;25173;50.430;18.926;2023-11-19T09:38:58;97950.00;;;8.53;59.05
39487;BME280;25173;50.430;18.926;2023-11-19T09:42:01;97951.13;;;8.62;59.38
39487;BME280;25173;50.430;18.926;2023-11-19T09:45:02;97943.84;;;8.78;59.19
39487;BME280;25173;50.430;18.926;2023-11-19T09:48:10;97931.97;;;8.94;58.96
39487;BME280;25173;50.430;18.926;2023-11-19T09:51:12;97916.50;;;9.10;58.77
39487;BME280;25173;50.430;18.926;2023-11-19T09:54:12;97914.59;;;9.25;58.20
39487;BME280;25173;50.430;18.926;2023-11-19T09:57:15;97916.50;;;9.30;57.83
39487;BME280;25173;50.430;18.926;2023-11-19T10:00:19;97900.19;;;9.35;57.62
39487;BME280;25173;50.430;18.926;2023-11-19T10:03:21;97898.28;;;9.35;57.26
39487;BME280;25173;50.430;18.926;2023-11-19T10:06:24;97887.69;;;9.24;57.00
39487;BME280;25173;50.430;18.926;2023-11-19T10:09:26;97875.47;;;9.21;57.10
39487;BME280;25173;50.430;18.926;2023-11-19T10:12:27;97876.00;;;9.13;56.92
39487;BME280;25173;50.430;18.926;2023-11-19T10:15:35;97881.97;;;9.05;56.93
39487;BME280;25173;50.430;18.926;2023-11-19T10:18:36;97880.06;;;8.90;57.22
39487;BME280;25173;50.430;18.926;2023-11-19T10:21:41;97870.28;;;8.84;57.29
39487;BME280;25173;50.430;18.926;2023-11-19T10:24:41;97856.94;;;8.63;57.80
39487;BME280;25173;50.430;18.926;2023-11-19T10:27:43;97851.50;;;8.52;58.17
39487;BME280;25173;50.430;18.926;2023-11-19T10:30:44;97840.91;;;8.36;58.17
39487;BME280;25173;50.430;18.926;2023-11-19T10:33:45;97836.22;;;8.26;58.63
39487;BME280;25173;50.430;18.926;2023-11-19T10:36:46;97834.53;;;8.10;59.04
39487;BME280;25173;50.430;18.926;2023-11-19T10:39:53;97829.91;;;8.05;59.36
39487;BME280;25173;50.430;18.926;2023-11-19T10:43:03;97808.19;;;7.95;59.38
39487;BME280;25173;50.430;18.926;2023-11-19T10:46:11;97798.97;;;7.91;59.69
39487;BME280;25173;50.430;18.926;2023-11-19T10:49:12;97795.13;;;7.87;59.67
39487;BME280;25173;50.430;18.926;2023-11-19T10:52:17;97789.16;;;7.80;59.84
39487;BME280;25173;50.430;18.926;2023-11-19T10:55:23;97793.50;;;7.81;60.28
39487;BME280;25173;50.430;18.926;2023-11-19T10:58:28;97788.63;;;7.78;60.46
39487;BME280;25173;50.430;18.926;2023-11-19T11:01:34;97785.59;;;7.74;60.54
39487;BME280;25173;50.430;18.926;2023-11-19T11:04:41;97796.38;;;7.64;60.76
39487;BME280;25173;50.430;18.926;2023-11-19T11:07:44;97784.47;;;7.60;61.23
39487;BME280;25173;50.430;18.926;2023-11-19T11:10:55;97775.19;;;7.51;61.43
39487;BME280;25173;50.430;18.926;2023-11-19T11:13:59;97765.66;;;7.38;61.87
39487;BME280;25173;50.430;18.926;2023-11-19T11:17:02;97752.38;;;7.42;62.35
39487;BME280;25173;50.430;18.926;2023-11-19T11:20:04;97750.56;;;7.53;62.23
39487;BME280;25173;50.430;18.926;2023-11-19T11:23:39;97743.00;;;7.60;62.24
39487;BME280;25173;50.430;18.926;2023-11-19T11:27:01;97741.91;;;7.61;62.15
39487;BME280;25173;50.430;18.926;2023-11-19T11:37:39;97721.00;;;7.51;62.24
39487;BME280;25173;50.430;18.926;2023-11-19T11:40:40;97713.13;;;7.45;62.57
39487;BME280;25173;50.430;18.926;2023-11-19T11:43:51;97710.72;;;7.48;62.66
39487;BME280;25173;50.430;18.926;2023-11-19T11:46:55;97720.22;;;7.56;62.82
39487;BME280;25173;50.430;18.926;2023-11-19T11:50:06;97718.06;;;7.58;62.61
39487;BME280;25173;50.430;18.926;2023-11-19T11:53:18;97701.78;;;7.58;62.61
39487;BME280;25173;50.430;18.926;2023-11-19T11:56:20;97699.09;;;7.58;62.77
39487;BME280;25173;50.430;18.926;2023-11-19T11:59:20;97693.41;;;7.54;62.66
39487;BME280;25173;50.430;18.926;2023-11-19T12:02:22;97699.63;;;7.55;62.68
39487;BME280;25173;50.430;18.926;2023-11-19T12:05:23;97693.41;;;7.54;62.89
39487;BME280;25173;50.430;18.926;2023-11-19T12:08:28;97698.00;;;7.54;62.80
39487;BME280;25173;50.430;18.926;2023-11-19T12:11:30;97685.47;;;7.43;62.82
39487;BME280;25173;50.430;18.926;2023-11-19T12:15:01;97682.75;;;7.37;63.07
39487;BME280;25173;50.430;18.926;2023-11-19T12:18:02;97687.88;;;7.34;63.16
39487;BME280;25173;50.430;18.926;2023-11-19T12:21:03;97673.56;;;7.38;63.35
39487;BME280;25173;50.430;18.926;2023-11-19T12:24:06;97686.03;;;7.39;63.21
39487;BME280;25173;50.430;18.926;2023-11-19T12:27:08;97664.88;;;7.41;63.38
39487;BME280;25173;50.430;18.926;2023-11-19T12:30:09;97660.03;;;7.44;63.31
39487;BME280;25173;50.430;18.926;2023-11-19T12:33:11;97661.13;;;7.48;63.28
39487;BME280;25173;50.430;18.926;2023-11-19T12:36:12;97652.97;;;7.43;63.28
39487;BME280;25173;50.430;18.926;2023-11-19T12:39:13;97649.44;;;7.37;63.49
39487;BME280;25173;50.430;18.926;2023-11-19T12:42:14;97641.56;;;7.35;63.73
39487;BME280;25173;50.430;18.926;2023-11-19T12:45:15;97622.91;;;7.39;63.82
39487;BME280;25173;50.430;18.926;2023-11-19T12:48:16;97630.22;;;7.44;63.84
39487;BME280;25173;50.430;18.926;2023-11-19T12:51:17;97623.22;;;7.48;63.95
39487;BME280;25173;50.430;18.926;2023-11-19T12:54:18;97630.78;;;7.51;63.83
39487;BME280;25173;50.430;18.926;2023-11-19T12:57:18;97626.44;;;7.50;63.91
39487;BME280;25173;50.430;18.926;2023-11-19T13:00:21;97611.25;;;7.49;64.10
39487;BME280;25173;50.430;18.926;2023-11-19T13:03:32;97597.19;;;7.52;64.05
39487;BME280;25173;50.430;18.926;2023-11-19T13:06:33;97603.94;;;7.49;64.08
39487;BME280;25173;50.430;18.926;2023-11-19T13:09:34;97609.94;;;7.51;64.19
39487;BME280;25173;50.430;18.926;2023-11-19T13:12:35;97604.81;;;7.55;64.34
39487;BME280;25173;50.430;18.926;2023-11-19T13:15:35;97598.00;;;7.52;64.25
39487;BME280;25173;50.430;18.926;2023-11-19T13:18:36;97597.47;;;7.50;64.28
39487;BME280;25173;50.430;18.926;2023-11-19T13:21:37;97587.44;;;7.51;64.34
39487;BME280;25173;50.430;18.926;2023-11-19T13:24:38;97593.41;;;7.48;64.36
39487;BME280;25173;50.430;18.926;2023-11-19T13:27:40;97572.53;;;7.43;64.57
39487;BME280;25173;50.430;18.926;2023-11-19T13:30:41;97582.03;;;7.46;64.66
39487;BME280;25173;50.430;18.926;2023-11-19T13:33:42;97574.16;;;7.49;64.69
39487;BME280;25173;50.430;18.926;2023-11-19T13:36:42;97568.72;;;7.49;64.99
39487;BME280;25173;50.430;18.926;2023-11-19T13:39:43;97558.19;;;7.58;65.04
39487;BME280;25173;50.430;18.926;2023-11-19T13:42:44;97559.56;;;7.55;65.02
39487;BME280;25173;50.430;18.926;2023-11-19T13:45:45;97555.75;;;7.46;65.05
39487;BME280;25173;50.430;18.926;2023-11-19T13:48:45;97559.53;;;7.50;65.34
39487;BME280;25173;50.430;18.926;2023-11-19T13:51:46;97559.81;;;7.54;65.53
39487;BME280;25173;50.430;18.926;2023-11-19T13:54:46;97544.66;;;7.63;65.43
39487;BME280;25173;50.430;18.926;2023-11-19T13:57:47;97552.22;;;7.71;65.54
39487;BME280;25173;50.430;18.926;2023-11-19T14:00:49;97547.34;;;7.73;65.43
39487;BME280;25173;50.430;18.926;2023-11-19T14:03:51;97553.06;;;7.82;65.46
39487;BME280;25173;50.430;18.926;2023-11-19T14:06:52;97550.59;;;7.80;65.57
39487;BME280;25173;50.430;18.926;2023-11-19T14:09:55;97549.00;;;7.84;65.39
39487;BME280;25173;50.430;18.926;2023-11-19T14:12:56;97538.66;;;7.86;65.71
39487;BME280;25173;50.430;18.926;2023-11-19T14:15:57;97539.78;;;7.90;65.72
39487;BME280;25173;50.430;18.926;2023-11-19T14:18:57;97531.38;;;7.92;65.75
39487;BME280;25173;50.430;18.926;2023-11-19T14:21:58;97540.31;;;7.92;65.64
39487;BME280;25173;50.430;18.926;2023-11-19T14:25:00;97525.13;;;7.91;65.84
39487;BME280;25173;50.430;18.926;2023-11-19T14:28:00;97512.13;;;7.83;66.02
39487;BME280;25173;50.430;18.926;2023-11-19T14:31:01;97516.97;;;7.86;66.45
39487;BME280;25173;50.430;18.926;2023-11-19T14:34:02;97515.91;;;7.87;66.53
39487;BME280;25173;50.430;18.926;2023-11-19T14:37:03;97506.66;;;7.93;66.46
39487;BME280;25173;50.430;18.926;2023-11-19T14:40:04;97505.31;;;7.96;66.41
39487;BME280;25173;50.430;18.926;2023-11-19T14:43:06;97513.19;;;8.02;66.50
39487;BME280;25173;50.430;18.926;2023-11-19T14:46:06;97518.88;;;8.06;66.31
39487;BME280;25173;50.430;18.926;2023-11-19T14:49:08;97505.84;;;8.03;66.54
39487;BME280;25173;50.430;18.926;2023-11-19T14:52:08;97509.38;;;8.03;66.70
39487;BME280;25173;50.430;18.926;2023-11-19T14:55:09;97496.91;;;8.07;66.76
39487;BME280;25173;50.430;18.926;2023-11-19T14:58:10;97519.94;;;8.10;66.85
39487;BME280;25173;50.430;18.926;2023-11-19T15:01:12;97502.34;;;8.07;66.86
39487;BME280;25173;50.430;18.926;2023-11-19T15:04:13;97507.75;;;8.12;66.92
39487;BME280;25173;50.430;18.926;2023-11-19T15:07:13;97502.88;;;8.14;66.95
39487;BME280;25173;50.430;18.926;2023-11-19T15:10:14;97502.88;;;8.14;67.16
39487;BME280;25173;50.430;18.926;2023-11-19T15:13:15;97511.53;;;8.16;67.19
39487;BME280;25173;50.430;18.926;2023-11-19T15:16:16;97517.47;;;8.24;67.22
39487;BME280;25173;50.430;18.926;2023-11-19T15:19:22;97514.50;;;8.25;67.15
39487;BME280;25173;50.430;18.926;2023-11-19T15:22:23;97519.66;;;8.22;67.36
39487;BME280;25173;50.430;18.926;2023-11-19T15:25:24;97512.06;;;8.18;67.51
39487;BME280;25173;50.430;18.926;2023-11-19T15:28:34;97519.66;;;8.27;67.51
39487;BME280;25173;50.430;18.926;2023-11-19T15:31:34;97508.25;;;8.25;67.55
39487;BME280;25173;50.430;18.926;2023-11-19T15:34:35;97509.88;;;8.26;67.50
39487;BME280;25173;50.430;18.926;2023-11-19T15:37:38;97520.47;;;8.22;67.57
39487;BME280;25173;50.430;18.926;2023-11-19T15:40:45;97515.84;;;8.23;67.67
39487;BME280;25173;50.430;18.926;2023-11-19T15:43:46;97533.75;;;8.24;67.75
39487;BME280;25173;50.430;18.926;2023-11-19T15:46:47;97512.59;;;8.15;67.88
39487;BME280;25173;50.430;18.926;2023-11-19T15:50:00;97519.41;;;8.13;68.01
39487;BME280;25173;50.430;18.926;2023-11-19T15:53:07;97515.06;;;8.12;68.20
39487;BME280;25173;50.430;18.926;2023-11-19T15:56:10;97519.94;;;8.10;68.44
39487;BME280;25173;50.430;18.926;2023-11-19T15:59:11;97514.25;;;8.11;68.56
39487;BME280;25173;50.430;18.926;2023-11-19T16:02:17;97507.47;;;8.14;68.59
39487;BME280;25173;50.430;18.926;2023-11-19T16:05:19;97500.44;;;8.13;68.99
39487;BME280;25173;50.430;18.926;2023-11-19T16:08:20;97497.16;;;8.16;69.33
39487;BME280;25173;50.430;18.926;2023-11-19T16:11:22;97499.03;;;8.15;69.21